createdAt,value
2022-08-11T00:01:05.236Z,21.85
2022-08-11T00:03:43.123Z,21.87
2022-08-11T00:06:14.043Z,21.91
2022-08-11T00:08:42.430Z,21.86
2022-08-11T00:11:11.840Z,21.80
2022-08-11T00:13:41.839Z,21.72
2022-08-11T00:16:20.090Z,21.74
2022-08-11T00:18:51.448Z,21.75
2022-08-11T00:21:20.882Z,21.75
2022-08-11T00:24:08.491Z,21.75
2022-08-11T00:26:36.440Z,21.73
2022-08-11T00:29:11.042Z,21.81
2022-08-11T00:31:38.875Z,21.89
2022-08-11T00:34:11.215Z,21.90
2022-08-11T00:36:57.656Z,21.92
2022-08-11T00:39:28.522Z,21.87
2022-08-11T00:42:22.675Z,21.86
2022-08-11T00:45:21.977Z,21.77
2022-08-11T00:48:03.960Z,21.71
2022-08-11T00:50:55.078Z,21.76
2022-08-11T00:53:36.518Z,21.77
2022-08-11T00:56:40.556Z,21.81
2022-08-11T00:59:35.555Z,21.89
2022-08-11T01:02:17.126Z,21.87
2022-08-11T01:05:22.104Z,21.78
2022-08-11T01:08:15.153Z,21.69
2022-08-11T01:10:56.703Z,21.65
2022-08-11T01:13:58.554Z,21.64
2022-08-11T01:16:47.808Z,21.63
2022-08-11T01:20:47.373Z,21.64
2022-08-11T01:23:27.412Z,21.64
2022-08-11T01:26:02.218Z,21.66
2022-08-11T01:29:00.214Z,21.69
2022-08-11T01:32:11.769Z,21.70
2022-08-11T01:35:48.378Z,21.71
2022-08-11T01:38:45.438Z,21.72
2022-08-11T01:41:58.691Z,21.72
2022-08-11T01:44:52.351Z,21.71
2022-08-11T01:47:52.370Z,21.64
2022-08-11T01:50:59.406Z,21.52
2022-08-11T01:53:47.703Z,21.48
2022-08-11T01:56:43.644Z,21.47
2022-08-11T01:59:26.281Z,21.46
2022-08-11T02:02:20.563Z,21.41
2022-08-11T02:05:01.690Z,21.32
2022-08-11T02:08:12.538Z,21.32
2022-08-11T02:11:13.317Z,21.27
2022-08-11T02:13:59.134Z,21.22
2022-08-11T02:16:31.646Z,21.25
2022-08-11T02:19:37.323Z,21.21
2022-08-11T02:22:32.096Z,21.20
2022-08-11T02:25:04.305Z,21.19
2022-08-11T02:27:53.104Z,21.19
2022-08-11T02:30:25.349Z,21.22
2022-08-11T02:33:27.629Z,21.24
2022-08-11T02:36:00.191Z,21.23
2022-08-11T02:38:35.669Z,21.27
2022-08-11T02:41:58.579Z,21.28
2022-08-11T02:44:38.867Z,21.30
2022-08-11T02:47:39.393Z,21.29
2022-08-11T02:50:20.323Z,21.21
2022-08-11T02:53:09.225Z,21.19
2022-08-11T02:55:57.416Z,21.14
2022-08-11T02:59:13.885Z,21.11
2022-08-11T03:02:04.841Z,21.13
2022-08-11T03:04:51.293Z,21.11
2022-08-11T03:07:28.811Z,21.06
2022-08-11T03:10:09.857Z,21.05
2022-08-11T03:13:12.573Z,21.10
2022-08-11T03:16:15.437Z,21.14
2022-08-11T03:18:56.205Z,21.15
2022-08-11T03:22:01.965Z,21.13
2022-08-11T03:24:24.593Z,21.12
2022-08-11T03:27:10.890Z,21.13
2022-08-11T03:29:48.953Z,21.06
2022-08-11T03:33:18.453Z,21.03
2022-08-11T03:36:15.730Z,21.07
2022-08-11T03:39:09.438Z,21.07
2022-08-11T03:42:02.805Z,21.04
2022-08-11T03:44:56.451Z,20.99
2022-08-11T03:47:39.977Z,20.93
2022-08-11T03:50:24.627Z,20.91
2022-08-11T03:53:14.487Z,20.92
2022-08-11T03:56:02.732Z,20.93
2022-08-11T03:58:57.546Z,20.92
2022-08-11T04:02:05.195Z,20.88
2022-08-11T04:04:58.869Z,20.83
2022-08-11T04:07:55.537Z,20.77
2022-08-11T04:10:47.381Z,20.74
2022-08-11T04:13:35.579Z,20.74
2022-08-11T04:16:21.225Z,20.72
2022-08-11T04:18:47.548Z,20.73
2022-08-11T04:21:35.667Z,20.76
2022-08-11T04:24:39.585Z,20.79
2022-08-11T04:27:42.876Z,20.80
2022-08-11T04:30:12.057Z,20.80
2022-08-11T04:32:53.717Z,20.78
2022-08-11T04:35:46.039Z,20.73
2022-08-11T04:38:44.893Z,20.68
2022-08-11T04:41:20.676Z,20.62
2022-08-11T04:44:18.921Z,20.58
2022-08-11T04:47:07.552Z,20.52
2022-08-11T04:50:16.742Z,20.52
2022-08-11T04:53:33.631Z,20.50
2022-08-11T04:56:36.390Z,20.52
2022-08-11T04:59:37.201Z,20.52
2022-08-11T05:02:40.517Z,20.53
2022-08-11T05:05:56.751Z,20.49
2022-08-11T05:09:07.793Z,20.50
2022-08-11T05:11:57.977Z,20.53
2022-08-11T05:15:31.146Z,20.56
2022-08-11T05:18:37.697Z,20.57
2022-08-11T05:21:29.187Z,20.57
2022-08-11T05:24:26.211Z,20.58
2022-08-11T05:27:13.909Z,20.57
2022-08-11T05:30:04.464Z,20.59
2022-08-11T05:33:01.467Z,20.62
2022-08-11T05:36:00.491Z,20.63
2022-08-11T05:38:51.707Z,20.65
2022-08-11T05:41:41.534Z,20.64
2022-08-11T05:44:28.954Z,20.67
2022-08-11T05:47:15.180Z,20.71
2022-08-11T05:50:00.871Z,20.70
2022-08-11T05:52:49.154Z,20.65
2022-08-11T05:56:02.430Z,20.57
2022-08-11T05:58:42.713Z,20.58
2022-08-11T06:01:11.813Z,20.63
2022-08-11T06:03:57.965Z,20.68
2022-08-11T06:06:27.942Z,20.79
2022-08-11T06:08:58.961Z,20.82
2022-08-11T06:11:43.903Z,20.89
2022-08-11T06:14:12.283Z,21.00
2022-08-11T06:16:47.627Z,21.10
2022-08-11T06:19:15.000Z,21.13
2022-08-11T06:21:46.570Z,21.18
2022-08-11T06:24:15.023Z,21.28
2022-08-11T06:27:10.768Z,21.26
2022-08-11T06:29:46.893Z,21.30
2022-08-11T06:32:15.818Z,21.30
2022-08-11T06:35:03.981Z,21.31
2022-08-11T06:37:46.990Z,21.35
2022-08-11T06:40:31.111Z,21.36
2022-08-11T06:43:10.490Z,21.38
2022-08-11T06:45:46.010Z,21.40
2022-08-11T06:48:18.469Z,21.36
2022-08-11T06:51:11.478Z,21.33
2022-08-11T06:54:03.791Z,21.24
2022-08-11T06:57:26.400Z,21.26
2022-08-11T07:00:03.356Z,21.30
2022-08-11T07:03:08.519Z,21.32
2022-08-11T07:05:37.566Z,21.35
2022-08-11T07:08:41.510Z,21.37
2022-08-11T07:11:57.568Z,21.36
2022-08-11T07:14:45.226Z,21.34
2022-08-11T07:17:17.257Z,21.38
2022-08-11T07:20:09.869Z,21.40
2022-08-11T07:22:56.234Z,21.43
2022-08-11T07:25:43.436Z,21.51
2022-08-11T07:28:36.336Z,21.53
2022-08-11T07:31:09.514Z,21.52
2022-08-11T07:34:06.917Z,21.52
2022-08-11T07:36:32.255Z,21.51
2022-08-11T07:38:59.677Z,21.56
2022-08-11T07:41:31.041Z,21.60
2022-08-11T07:44:09.034Z,21.66
2022-08-11T07:47:02.950Z,21.75
2022-08-11T07:49:51.895Z,21.83
2022-08-11T07:52:37.095Z,21.91
2022-08-11T07:55:16.895Z,21.94
2022-08-11T07:58:19.950Z,21.91
2022-08-11T08:01:10.683Z,21.94
2022-08-11T08:04:08.869Z,22.01
2022-08-11T08:06:55.348Z,22.09
2022-08-11T08:09:41.715Z,22.12
2022-08-11T08:12:28.570Z,22.15
2022-08-11T08:15:16.117Z,22.18
2022-08-11T08:18:09.505Z,22.25
2022-08-11T08:20:46.208Z,22.26
2022-08-11T08:23:13.352Z,22.31
2022-08-11T08:25:42.183Z,22.38
2022-08-11T08:28:16.309Z,22.36
2022-08-11T08:30:52.545Z,22.37
2022-08-11T08:33:30.168Z,22.42
2022-08-11T08:36:12.257Z,22.45
2022-08-11T08:38:46.983Z,22.50
2022-08-11T08:41:19.437Z,22.53
2022-08-11T08:43:51.316Z,22.54
2022-08-11T08:46:25.626Z,22.60
2022-08-11T08:48:53.590Z,22.63
2022-08-11T08:52:01.091Z,22.69
2022-08-11T08:54:33.926Z,22.81
2022-08-11T08:57:04.870Z,22.89
2022-08-11T08:59:47.565Z,22.91
2022-08-11T09:02:17.398Z,22.93
2022-08-11T09:04:46.735Z,23.03
2022-08-11T09:07:16.518Z,23.07
2022-08-11T09:09:45.245Z,23.08
2022-08-11T09:12:13.024Z,23.09
2022-08-11T09:15:00.641Z,23.12
2022-08-11T09:17:28.915Z,23.18
2022-08-11T09:20:00.315Z,23.29
2022-08-11T09:23:06.472Z,23.39
2022-08-11T09:25:55.413Z,23.44
2022-08-11T09:28:23.540Z,23.53
2022-08-11T09:30:53.483Z,23.61
2022-08-11T09:33:21.445Z,23.70
2022-08-11T09:35:51.181Z,23.77
2022-08-11T09:38:38.229Z,23.91
2022-08-11T09:41:08.922Z,23.96
2022-08-11T09:44:04.297Z,23.99
2022-08-11T09:46:32.756Z,24.02
2022-08-11T09:49:01.030Z,24.04
2022-08-11T09:51:32.448Z,24.02
2022-08-11T09:54:07.346Z,23.99
2022-08-11T09:56:53.321Z,23.99
2022-08-11T09:59:22.127Z,24.04
2022-08-11T10:01:57.261Z,24.10
2022-08-11T10:04:42.374Z,24.21
2022-08-11T10:07:10.781Z,24.23
2022-08-11T10:09:50.562Z,24.30
2022-08-11T10:12:32.231Z,24.35
2022-08-11T10:15:27.933Z,24.37
2022-08-11T10:18:16.630Z,24.41
2022-08-11T10:20:50.137Z,24.37
2022-08-11T10:23:36.265Z,24.42
2022-08-11T10:26:44.523Z,24.51
2022-08-11T10:29:35.246Z,24.61
2022-08-11T10:32:27.068Z,24.64
2022-08-11T10:35:00.627Z,24.72
2022-08-11T10:38:07.517Z,24.80
2022-08-11T10:40:23.493Z,24.84
2022-08-11T10:43:03.603Z,24.80
2022-08-11T10:45:56.660Z,24.85
2022-08-11T10:48:25.885Z,24.84
2022-08-11T10:51:11.984Z,24.82
2022-08-11T10:54:00.729Z,24.84
2022-08-11T10:56:48.982Z,24.86
2022-08-11T10:59:16.728Z,24.92
2022-08-11T11:01:45.310Z,24.97
2022-08-11T11:04:17.258Z,25.04
2022-08-11T11:06:46.347Z,25.11
2022-08-11T11:09:39.602Z,25.17
2022-08-11T11:12:39.741Z,25.15
2022-08-11T11:15:25.830Z,25.25
2022-08-11T11:17:56.257Z,25.22
2022-08-11T11:20:47.480Z,25.31
2022-08-11T11:23:26.835Z,25.44
2022-08-11T11:26:29.559Z,25.50
2022-08-11T11:29:07.622Z,25.51
2022-08-11T11:31:43.078Z,25.58
2022-08-11T11:34:20.789Z,25.60
2022-08-11T11:36:58.358Z,25.61
2022-08-11T11:39:27.744Z,25.67
2022-08-11T11:41:56.619Z,25.73
2022-08-11T11:44:24.220Z,25.76
2022-08-11T11:46:52.201Z,25.85
2022-08-11T11:51:55.564Z,25.96
2022-08-11T11:54:25.121Z,26.07
2022-08-11T11:56:53.187Z,26.20
2022-08-11T11:59:41.064Z,26.31
2022-08-11T12:02:14.820Z,26.30
2022-08-11T12:04:44.226Z,26.36
2022-08-11T12:07:30.354Z,26.42
2022-08-11T12:09:58.434Z,26.54
2022-08-11T12:12:44.712Z,26.61
2022-08-11T12:15:12.484Z,26.69
2022-08-11T12:17:39.518Z,26.71
2022-08-11T12:20:31.752Z,26.77
2022-08-11T12:23:15.092Z,26.85
2022-08-11T12:26:25.236Z,26.92
2022-08-11T12:28:49.542Z,27.03
2022-08-11T12:31:16.294Z,27.07
2022-08-11T12:33:43.801Z,27.03
2022-08-11T12:36:15.686Z,27.04
2022-08-11T12:38:46.798Z,27.04
2022-08-11T12:41:38.922Z,27.07
2022-08-11T12:44:41.519Z,27.06
2022-08-11T12:47:09.056Z,27.11
2022-08-11T12:50:00.299Z,27.13
2022-08-11T12:52:33.942Z,27.20
2022-08-11T12:55:13.811Z,27.24
2022-08-11T12:58:04.252Z,27.28
2022-08-11T13:00:50.513Z,27.40
2022-08-11T13:03:39.096Z,27.52
2022-08-11T13:06:07.253Z,27.63
2022-08-11T13:08:36.837Z,27.64
2022-08-11T13:11:22.704Z,27.68
2022-08-11T13:13:57.194Z,27.73
2022-08-11T13:16:57.134Z,27.77
2022-08-11T13:19:24.516Z,27.84
2022-08-11T13:21:53.246Z,27.88
2022-08-11T13:24:21.621Z,27.95
2022-08-11T13:26:50.647Z,27.94
2022-08-11T13:29:28.574Z,27.98
2022-08-11T13:32:00.625Z,28.04
2022-08-11T13:34:30.892Z,28.06
2022-08-11T13:37:00.954Z,28.12
2022-08-11T13:39:31.023Z,28.16
2022-08-11T13:42:00.138Z,28.13
2022-08-11T13:44:29.806Z,28.17
2022-08-11T13:47:01.041Z,28.09
2022-08-11T13:49:28.647Z,28.20
2022-08-11T13:51:57.152Z,28.22
2022-08-11T13:54:31.038Z,28.26
2022-08-11T13:57:02.598Z,28.30
2022-08-11T13:59:31.119Z,28.34
2022-08-11T14:02:22.365Z,28.37
2022-08-11T14:04:58.927Z,28.33
2022-08-11T14:07:35.214Z,28.28
2022-08-11T14:10:03.985Z,28.28
2022-08-11T14:12:52.590Z,28.28
2022-08-11T14:15:49.869Z,28.26
2022-08-11T14:18:22.770Z,28.25
2022-08-11T14:21:12.694Z,28.26
2022-08-11T14:23:41.612Z,28.27
2022-08-11T14:26:28.801Z,28.28
2022-08-11T14:29:08.901Z,28.27
2022-08-11T14:31:43.512Z,28.20
2022-08-11T14:34:13.028Z,28.23
2022-08-11T14:36:41.942Z,28.22
2022-08-11T14:39:13.177Z,28.23
2022-08-11T14:42:11.637Z,28.18
2022-08-11T14:45:04.882Z,28.06
2022-08-11T14:47:35.737Z,28.11
2022-08-11T14:50:11.364Z,28.10
2022-08-11T14:52:45.722Z,28.16
2022-08-11T14:55:31.997Z,28.19
2022-08-11T14:58:00.178Z,28.18
2022-08-11T15:00:26.935Z,28.16
2022-08-11T15:03:10.134Z,28.15
2022-08-11T15:05:52.426Z,28.13
2022-08-11T15:08:45.847Z,28.13
2022-08-11T15:11:33.981Z,28.13
2022-08-11T15:14:02.995Z,28.14
2022-08-11T15:16:48.075Z,28.17
2022-08-11T15:19:16.135Z,28.16
2022-08-11T15:22:01.194Z,28.15
2022-08-11T15:24:27.935Z,28.09
2022-08-11T15:27:19.547Z,28.07
2022-08-11T15:30:06.417Z,28.09
2022-08-11T15:32:53.400Z,28.09
2022-08-11T15:35:39.613Z,28.13
2022-08-11T15:38:11.538Z,28.09
2022-08-11T15:40:59.295Z,28.07
2022-08-11T15:43:53.270Z,28.05
2022-08-11T15:46:27.290Z,28.05
2022-08-11T15:49:00.909Z,28.04
2022-08-11T15:51:35.873Z,27.95
2022-08-11T15:54:09.358Z,27.95
2022-08-11T15:56:41.469Z,27.96
2022-08-11T15:59:41.883Z,27.93
2022-08-11T16:02:28.118Z,27.95
2022-08-11T16:04:56.661Z,27.92
2022-08-11T16:07:29.493Z,27.95
2022-08-11T16:10:09.541Z,27.96
2022-08-11T16:12:40.535Z,27.93
2022-08-11T16:15:28.735Z,27.94
2022-08-11T16:18:01.002Z,27.94
2022-08-11T16:20:30.685Z,27.91
2022-08-11T16:23:02.910Z,27.91
2022-08-11T16:27:03.507Z,27.90
2022-08-11T16:28:23.038Z,27.90
2022-08-11T16:30:51.145Z,27.91
2022-08-11T16:33:22.632Z,27.90
2022-08-11T16:36:25.547Z,27.89
2022-08-11T16:38:54.792Z,27.89
2022-08-11T16:41:42.397Z,27.87
2022-08-11T16:44:36.982Z,27.85
2022-08-11T16:47:08.410Z,27.88
2022-08-11T16:49:38.381Z,27.87
2022-08-11T16:52:10.931Z,27.84
2022-08-11T16:54:40.524Z,27.84
2022-08-11T16:57:33.751Z,27.83
2022-08-11T17:00:06.111Z,27.80
2022-08-11T17:03:04.870Z,27.81
2022-08-11T17:05:55.014Z,27.80
2022-08-11T17:08:57.112Z,27.81
2022-08-11T17:11:46.898Z,27.79
2022-08-11T17:14:35.427Z,27.77
2022-08-11T17:17:05.997Z,27.75
2022-08-11T17:20:40.775Z,27.73
2022-08-11T17:22:40.952Z,27.71
2022-08-11T17:25:09.440Z,27.71
2022-08-11T17:27:38.948Z,27.70
2022-08-11T17:30:07.561Z,27.70
2022-08-11T17:33:01.047Z,27.68
2022-08-11T17:35:39.205Z,27.65
2022-08-11T17:38:15.719Z,27.58
2022-08-11T17:41:05.417Z,27.57
2022-08-11T17:43:51.625Z,27.56
2022-08-11T17:46:38.004Z,27.51
2022-08-11T17:49:07.769Z,27.46
2022-08-11T17:51:54.333Z,27.42
2022-08-11T17:54:41.859Z,27.38
2022-08-11T17:57:28.638Z,27.33
2022-08-11T17:59:57.682Z,27.28
2022-08-11T18:02:50.033Z,27.25
2022-08-11T18:05:20.001Z,27.17
2022-08-11T18:08:06.857Z,27.11
2022-08-11T18:10:54.225Z,27.11
2022-08-11T18:13:41.235Z,27.09
2022-08-11T18:16:27.048Z,27.02
2022-08-11T18:19:12.572Z,26.99
2022-08-11T18:22:02.721Z,26.94
2022-08-11T18:25:05.346Z,26.90
2022-08-11T18:27:53.129Z,26.85
2022-08-11T18:30:38.568Z,26.80
2022-08-11T18:36:39.691Z,26.67
2022-08-11T18:39:29.137Z,26.65
2022-08-11T18:42:28.941Z,26.58
2022-08-11T18:45:18.298Z,26.48
2022-08-11T18:48:07.168Z,26.46
2022-08-11T18:51:30.093Z,26.40
2022-08-11T18:54:05.863Z,26.39
2022-08-11T18:56:51.354Z,26.37
2022-08-11T18:59:42.202Z,26.34
2022-08-11T19:02:29.073Z,26.29
2022-08-11T19:05:16.878Z,26.21
2022-08-11T19:08:07.307Z,26.12
2022-08-11T19:10:52.584Z,26.11
2022-08-11T19:13:43.453Z,26.07
2022-08-11T19:16:30.698Z,26.09
2022-08-11T19:19:17.628Z,26.06
2022-08-11T19:22:03.479Z,26.04
2022-08-11T19:24:50.234Z,26.02
2022-08-11T19:27:37.278Z,26.02
2022-08-11T19:30:22.467Z,26.02
2022-08-11T19:33:08.671Z,25.98
2022-08-11T19:35:55.137Z,25.95
2022-08-11T19:38:40.933Z,25.93
2022-08-11T19:41:52.070Z,25.83
2022-08-11T19:44:34.208Z,25.68
2022-08-11T19:47:20.668Z,25.66
2022-08-11T19:50:07.559Z,25.64
2022-08-11T19:52:55.019Z,25.63
2022-08-11T19:55:40.901Z,25.58
2022-08-11T19:58:26.241Z,25.54
2022-08-11T20:01:11.208Z,25.54
2022-08-11T20:03:56.335Z,25.53
2022-08-11T20:06:42.619Z,25.52
2022-08-11T20:10:06.059Z,25.54
2022-08-11T20:12:36.939Z,25.52
2022-08-11T20:15:23.658Z,25.48
2022-08-11T20:18:09.465Z,25.47
2022-08-11T20:20:55.436Z,25.45
2022-08-11T20:23:42.699Z,25.40
2022-08-11T20:26:31.332Z,25.40
2022-08-11T20:29:18.904Z,25.39
2022-08-11T20:32:06.610Z,25.33
2022-08-11T20:34:56.734Z,25.31
2022-08-11T20:37:48.821Z,25.26
2022-08-11T20:40:39.391Z,25.23
2022-08-11T20:44:08.473Z,25.23
2022-08-11T20:46:37.759Z,25.22
2022-08-11T20:49:24.677Z,25.18
2022-08-11T20:52:09.968Z,25.12
2022-08-11T20:54:56.649Z,25.04
2022-08-11T20:58:00.072Z,24.96
2022-08-11T21:00:52.635Z,24.95
2022-08-11T21:03:44.817Z,24.96
2022-08-11T21:06:33.141Z,24.98
2022-08-11T21:09:25.020Z,24.98
2022-08-11T21:12:30.835Z,24.88
2022-08-11T21:15:38.692Z,24.86
2022-08-11T21:18:28.465Z,24.93
2022-08-11T21:21:17.962Z,24.89
2022-08-11T21:24:05.205Z,24.91
2022-08-11T21:26:51.715Z,24.87
2022-08-11T21:29:38.562Z,24.87
2022-08-11T21:32:24.393Z,24.82
2022-08-11T21:35:10.765Z,24.78
2022-08-11T21:37:56.595Z,24.73
2022-08-11T21:40:44.009Z,24.67
2022-08-11T21:43:30.194Z,24.64
2022-08-11T21:46:16.484Z,24.58
2022-08-11T21:49:03.236Z,24.59
2022-08-11T21:51:48.603Z,24.51
2022-08-11T21:54:34.925Z,24.47
2022-08-11T21:57:21.923Z,24.47
2022-08-11T22:00:15.474Z,24.42
2022-08-11T22:03:04.755Z,24.46
2022-08-11T22:05:52.069Z,24.44
2022-08-11T22:08:37.954Z,24.40
2022-08-11T22:11:32.429Z,24.34
2022-08-11T22:14:21.237Z,24.25
2022-08-11T22:17:06.467Z,24.23
2022-08-11T22:19:53.326Z,24.24
2022-08-11T22:22:51.864Z,24.21
2022-08-11T22:25:51.257Z,24.08
2022-08-11T22:28:39.333Z,24.06
2022-08-11T22:31:26.802Z,24.15
2022-08-11T22:34:11.991Z,24.12
2022-08-11T22:36:59.357Z,24.12
2022-08-11T22:40:02.645Z,24.20
2022-08-11T22:42:50.003Z,24.18
2022-08-11T22:45:35.419Z,24.20
2022-08-11T22:48:24.419Z,24.21
2022-08-11T22:51:10.754Z,24.12
2022-08-11T22:53:58.956Z,24.08
2022-08-11T22:56:46.569Z,24.05
2022-08-11T22:59:33.137Z,24.06
2022-08-11T23:02:19.913Z,24.04
2022-08-11T23:05:07.710Z,24.05
2022-08-11T23:07:54.173Z,24.08
2022-08-11T23:10:40.947Z,24.12
2022-08-11T23:13:27.345Z,24.12
2022-08-11T23:16:17.240Z,24.14
2022-08-11T23:19:04.018Z,24.17
2022-08-11T23:21:50.182Z,24.14
2022-08-11T23:24:36.140Z,24.12
2022-08-11T23:27:23.099Z,24.09
2022-08-11T23:30:09.429Z,24.07
2022-08-11T23:32:55.856Z,24.05
2022-08-11T23:35:54.021Z,24.02
2022-08-11T23:38:43.282Z,23.98
2022-08-11T23:41:31.973Z,23.93
2022-08-11T23:44:18.259Z,23.89
2022-08-11T23:47:04.982Z,23.87
2022-08-11T23:49:51.631Z,23.92
2022-08-11T23:52:37.478Z,23.91
2022-08-11T23:55:22.752Z,23.93
2022-08-11T23:58:08.682Z,23.98
